Time;durP1;ratioP1;P1;durP2;ratioP2;P2;SDS_P1;SDS_P2;PMS_P1;PMS_P2;Temp;Humidity;BMP_temperature;BMP_pressure;BME280_temperature;BME280_humidity;BME280_pressure;Samples;Min_cycle;Max_cycle;Signal;HPM_P1;HPM_P2
2022/01/18 00:01:29;;;;;;;53.72;37.08;;;;;;;5.41;82.32;101310.59;5018981;28;20111;-78
2022/01/18 00:03:56;;;;;;;60.40;36.17;;;;;;;5.42;82.53;101309.47;5018609;28;20025;-78
2022/01/18 00:06:22;;;;;;;58.50;37.88;;;;;;;5.39;83.04;101321.13;5039465;28;20049;-78
2022/01/18 00:08:48;;;;;;;60.72;38.05;;;;;;;5.43;82.94;101311.97;5039103;28;20029;-78
2022/01/18 00:11:15;;;;;;;63.90;37.65;;;;;;;5.43;82.94;101319.38;5038779;28;20044;-78
2022/01/18 00:13:56;;;;;;;52.13;35.28;;;;;;;5.46;82.34;101316.03;5055666;28;20047;-78
2022/01/18 00:18:52;;;;;;;62.85;35.03;;;;;;;5.29;83.12;101304.72;5056097;28;20067;-78
2022/01/18 00:22:08;;;;;;;56.28;36.28;;;;;;;5.33;83.57;101322.34;5038664;28;20029;-78
2022/01/18 00:24:09;;;;;;;42.83;30.63;;;;;;;5.22;83.68;101310.63;5048601;28;20029;-78
2022/01/18 00:26:34;;;;;;;45.10;29.20;;;;;;;5.26;83.25;101326.28;5057390;28;20052;-77
2022/01/18 00:29:10;;;;;;;46.80;27.92;;;;;;;5.25;82.88;101321.88;5057150;28;20036;-78
2022/01/18 00:34:23;;;;;;;37.90;23.95;;;;;;;5.16;83.46;101329.19;5057145;28;20494;-78
2022/01/18 00:36:58;;;;;;;41.58;25.88;;;;;;;5.27;83.32;101340.88;5038867;28;20021;-78
2022/01/18 00:39:26;;;;;;;43.72;24.55;;;;;;;5.26;83.06;101337.31;5037162;28;20028;-78
2022/01/18 00:41:52;;;;;;;45.88;26.52;;;;;;;5.19;83.63;101341.56;5055028;28;20031;-78
2022/01/18 00:44:17;;;;;;;55.03;29.02;;;;;;;5.20;84.31;101348.72;5037275;28;20025;-78
2022/01/18 00:46:44;;;;;;;44.03;26.42;;;;;;;5.14;83.85;101328.66;5037642;28;20427;-78
2022/01/18 00:49:13;;;;;;;43.70;27.15;;;;;;;5.05;83.80;101300.09;5036896;28;20029;-78
2022/01/18 00:51:41;;;;;;;45.28;27.38;;;;;;;5.28;83.67;101338.97;5036562;28;20119;-78
2022/01/18 00:54:12;;;;;;;43.92;25.98;;;;;;;5.26;83.00;101329.03;5055138;28;20025;-78
2022/01/18 00:56:43;;;;;;;38.10;24.13;;;;;;;5.31;82.50;101354.91;5036247;28;20055;-78
2022/01/18 00:59:09;;;;;;;52.97;29.48;;;;;;;5.32;82.90;101340.00;5036501;28;20036;-78
2022/01/18 01:01:36;;;;;;;43.00;25.73;;;;;;;5.27;83.15;101340.88;5036743;28;20029;-78
2022/01/18 01:04:03;;;;;;;49.40;27.85;;;;;;;5.28;83.58;101348.06;5054775;28;20020;-78
2022/01/18 01:06:31;;;;;;;45.80;26.63;;;;;;;5.20;83.93;101338.50;5054517;28;20080;-78
2022/01/18 01:09:15;;;;;;;46.90;25.70;;;;;;;5.29;84.00;101351.66;5036577;28;20029;-78
2022/01/18 01:11:41;;;;;;;44.72;24.17;;;;;;;5.28;83.47;101353.59;5036391;28;20025;-78
2022/01/18 01:14:13;;;;;;;43.83;25.38;;;;;;;5.26;83.42;101353.88;5036318;28;20040;-78
2022/01/18 01:31:57;;;;;;;38.53;24.08;;;;;;;5.15;83.56;101359.84;4973063;28;20537;-78
2022/01/18 01:36:44;;;;;;;36.60;23.38;;;;;;;5.00;85.13;101350.66;5054124;28;20124;-78
2022/01/18 01:44:40;;;;;;;34.58;22.73;;;;;;;4.99;85.04;101345.44;5057303;28;20435;-78
2022/01/18 01:47:06;;;;;;;34.42;23.40;;;;;;;4.98;84.52;101344.63;5041151;28;20404;-78
2022/01/18 01:49:32;;;;;;;34.75;22.88;;;;;;;4.99;85.13;101342.69;5040510;28;20424;-78
2022/01/18 01:51:57;;;;;;;44.80;25.33;;;;;;;4.98;84.70;101332.78;5040721;28;20124;-78
2022/01/18 01:54:23;;;;;;;36.80;24.23;;;;;;;5.05;84.91;101338.72;5040005;28;20392;-78
2022/01/18 01:56:49;;;;;;;37.00;24.80;;;;;;;4.98;85.10;101339.09;5058193;28;20056;-78
2022/01/18 01:59:15;;;;;;;45.75;25.42;;;;;;;5.07;85.72;101336.50;5040326;28;20067;-78
2022/01/18 02:01:47;;;;;;;40.33;26.02;;;;;;;5.04;85.07;101325.25;5040485;28;20037;-78
2022/01/18 02:04:13;;;;;;;44.63;26.08;;;;;;;4.98;85.52;101330.00;5040434;28;20110;-78
2022/01/18 02:06:41;;;;;;;40.00;26.08;;;;;;;4.88;85.98;101322.69;5034053;28;20484;-78
2022/01/18 02:09:07;;;;;;;34.53;24.83;;;;;;;4.91;86.09;101318.53;5019833;28;20068;-78
2022/01/18 02:11:33;;;;;;;46.05;26.23;;;;;;;4.56;86.04;101260.00;5020113;28;20030;-78
2022/01/18 02:13:59;;;;;;;39.60;24.48;;;;;;;4.90;86.24;101314.13;5019944;28;20041;-78
2022/01/18 02:21:53;;;;;;;33.03;22.85;;;;;;;4.87;86.05;101336.78;5038056;28;20041;-78
2022/01/18 02:24:21;;;;;;;34.72;19.38;;;;;;;4.83;86.09;101324.69;5020195;28;20393;-78
2022/01/18 02:26:49;;;;;;;39.92;20.58;;;;;;;4.68;85.96;101300.91;5037980;28;20404;-78
2022/01/18 02:29:16;;;;;;;29.25;18.80;;;;;;;4.67;86.04;101294.56;5020134;28;20064;-78
2022/01/18 02:31:42;;;;;;;29.80;17.98;;;;;;;4.82;85.81;101331.34;5020849;28;20030;-78
2022/01/18 02:34:11;;;;;;;29.48;17.90;;;;;;;4.84;85.63;101332.66;5020180;28;20399;-78
2022/01/18 02:36:38;;;;;;;31.95;18.65;;;;;;;4.79;85.24;101329.16;5019534;28;20041;-78
2022/01/18 02:39:05;;;;;;;26.20;17.38;;;;;;;4.79;85.33;101331.91;5020580;28;20427;-78
2022/01/18 02:41:31;;;;;;;27.23;17.83;;;;;;;4.77;84.98;101321.19;5037898;28;20033;-78
2022/01/18 02:44:06;;;;;;;31.55;19.13;;;;;;;4.92;85.12;101339.47;5019958;28;20025;-78
2022/01/18 02:46:31;;;;;;;29.70;19.35;;;;;;;4.89;84.71;101340.06;5019444;28;20029;-78
2022/01/18 02:48:59;;;;;;;44.08;23.25;;;;;;;4.79;84.94;101323.66;5020045;28;20087;-78
2022/01/18 02:51:26;;;;;;;38.30;23.77;;;;;;;4.85;84.90;101347.31;5037587;28;20034;-78
2022/01/18 02:54:07;;;;;;;35.65;20.33;;;;;;;4.74;84.67;101341.09;5019351;28;20029;-78
2022/01/18 02:56:43;;;;;;;30.50;18.38;;;;;;;4.63;85.34;101325.78;5017965;28;20029;-78
2022/01/18 02:59:21;;;;;;;29.48;18.02;;;;;;;4.73;85.34;101336.69;5036881;28;20104;-78
2022/01/18 03:04:40;;;;;;;25.00;16.13;;;;;;;4.69;85.63;101336.47;5036869;28;20087;-78
2022/01/18 03:07:07;;;;;;;26.48;19.55;;;;;;;4.83;85.11;101341.25;5018859;28;20057;-78
2022/01/18 03:09:33;;;;;;;39.15;20.08;;;;;;;4.78;85.46;101333.03;5019503;28;20033;-79
2022/01/18 03:11:59;;;;;;;33.05;20.88;;;;;;;4.53;85.35;101304.69;5019836;28;20051;-79
2022/01/18 03:14:27;;;;;;;32.50;21.55;;;;;;;4.72;86.21;101340.56;5037653;28;20033;-78
2022/01/18 03:16:55;;;;;;;53.00;27.38;;;;;;;4.57;86.42;101310.44;5019296;28;20120;-78
2022/01/18 03:19:22;;;;;;;112.47;60.33;;;;;;;4.71;86.60;101338.94;5036862;28;20088;-78
2022/01/18 03:21:53;;;;;;;203.50;109.93;;;;;;;4.79;86.93;101349.28;5036541;28;20037;-79
2022/01/18 03:29:28;;;;;;;138.93;78.65;;;;;;;4.85;86.64;101355.59;5036890;28;20144;-79
2022/01/18 03:31:57;;;;;;;94.68;55.33;;;;;;;4.83;86.54;101344.81;5035981;28;20516;-79
2022/01/18 03:34:23;;;;;;;89.78;52.92;;;;;;;4.88;86.22;101363.25;5017857;28;20396;-79
2022/01/18 03:36:48;;;;;;;87.60;54.53;;;;;;;4.79;86.26;101349.28;5018595;28;20029;-78
2022/01/18 03:39:14;;;;;;;116.30;77.03;;;;;;;4.87;86.09;101354.16;5018492;28;20132;-78
2022/01/18 03:41:40;;;;;;;145.50;100.10;;;;;;;4.64;86.38;101314.47;5018505;28;20033;-78
2022/01/18 03:44:06;;;;;;;153.80;102.35;;;;;;;4.76;86.43;101335.28;5018155;28;20121;-78
2022/01/18 03:46:36;;;;;;;141.18;89.78;;;;;;;4.82;86.63;101331.34;5018259;28;20064;-79
2022/01/18 03:49:04;;;;;;;151.80;94.43;;;;;;;4.86;86.39;101335.16;5018406;28;20037;-78
2022/01/18 03:51:30;;;;;;;128.10;78.30;;;;;;;4.94;86.65;101342.75;5018695;28;20492;-78
2022/01/18 03:53:55;;;;;;;130.98;82.10;;;;;;;4.81;86.17;101326.94;5018045;28;20029;-79
2022/01/18 03:56:21;;;;;;;132.35;75.10;;;;;;;4.75;86.30;101328.94;5036320;28;20040;-79
2022/01/18 03:58:46;;;;;;;127.57;69.22;;;;;;;4.71;86.84;101336.97;5035959;28;20075;-78
2022/01/18 04:01:12;;;;;;;132.85;70.18;;;;;;;4.73;87.03;101334.75;5018817;28;20037;-79
2022/01/18 04:03:40;;;;;;;114.68;63.85;;;;;;;4.61;86.58;101337.13;5018167;28;20053;-78
2022/01/18 04:06:05;;;;;;;80.72;47.10;;;;;;;4.77;86.76;101350.72;5036586;28;20033;-78
2022/01/18 04:08:31;;;;;;;77.07;42.55;;;;;;;4.80;86.63;101337.16;5037584;28;20483;-78
2022/01/18 04:10:58;;;;;;;66.10;37.67;;;;;;;4.80;85.90;101330.81;5038203;28;20467;-78
2022/01/18 04:13:24;;;;;;;61.08;34.10;;;;;;;4.75;85.55;101334.47;5037792;28;20107;-79
2022/01/18 04:15:50;;;;;;;89.55;50.78;;;;;;;4.65;86.25;101337.34;5038242;28;20044;-79
2022/01/18 04:28:57;;;;;;;77.15;42.45;;;;;;;4.72;85.52;101326.78;5055630;28;20380;-79
2022/01/18 04:31:24;;;;;;;46.30;29.42;;;;;;;4.72;86.08;101338.63;5056102;28;20036;-79
2022/01/18 04:33:50;;;;;;;66.00;37.72;;;;;;;4.70;86.50;101338.09;5037811;28;20123;-79
2022/01/18 04:36:16;;;;;;;78.88;48.22;;;;;;;4.67;86.25;101335.09;5038320;28;20118;-79
2022/01/18 04:38:42;;;;;;;81.32;46.45;;;;;;;4.70;86.23;101349.13;5038231;28;20195;-79
2022/01/18 04:41:12;;;;;;;61.45;34.92;;;;;;;4.70;86.16;101342.81;5038084;28;20488;-79
2022/01/18 04:49:24;;;;;;;101.20;57.10;;;;;;;4.55;86.14;101345.75;5050423;28;20042;-79
2022/01/18 04:51:49;;;;;;;91.30;51.92;;;;;;;4.60;86.03;101357.53;5037036;28;20029;-79
2022/01/18 04:54:16;;;;;;;92.65;53.88;;;;;;;4.62;85.98;101358.03;5055594;28;20108;-79
2022/01/18 04:59:10;;;;;;;68.88;42.78;;;;;;;4.59;85.90;101360.59;5056070;28;20476;-79
2022/01/18 05:01:39;;;;;;;58.15;33.30;;;;;;;4.42;86.17;101347.25;5038131;28;20052;-79
2022/01/18 05:04:04;;;;;;;41.10;22.98;;;;;;;4.68;87.03;101375.34;5036314;28;20150;-79
2022/01/18 05:06:33;;;;;;;32.67;19.77;;;;;;;4.68;86.25;101378.09;5031651;28;20136;-78
2022/01/18 05:09:01;;;;;;;32.30;19.50;;;;;;;4.50;86.42;101359.59;5034770;28;20040;-79
2022/01/18 05:11:31;;;;;;;31.02;18.35;;;;;;;4.66;86.67;101374.81;5017022;28;20044;-78
2022/01/18 05:24:34;;;;;;;32.60;18.88;;;;;;;4.77;86.38;101381.84;5034369;28;20445;-79
2022/01/18 05:27:01;;;;;;;28.02;17.30;;;;;;;4.72;86.31;101379.16;5016677;28;20036;-79
2022/01/18 05:29:30;;;;;;;26.85;16.88;;;;;;;4.62;85.81;101390.31;5034378;28;20033;-79
2022/01/18 05:31:59;;;;;;;29.40;16.60;;;;;;;4.51;86.29;101378.56;5034726;28;20029;-78
2022/01/18 05:34:26;;;;;;;24.63;15.63;;;;;;;4.53;85.92;101381.03;5035087;28;20034;-79
2022/01/18 05:36:55;;;;;;;25.33;15.40;;;;;;;4.54;86.00;101393.72;5017659;28;20483;-79
2022/01/18 05:39:21;;;;;;;24.63;15.75;;;;;;;4.38;86.61;101376.53;5018050;28;20025;-79
2022/01/18 05:41:50;;;;;;;24.88;14.80;;;;;;;4.56;86.35;101408.03;5019537;28;20045;-80
2022/01/18 05:44:16;;;;;;;25.50;15.10;;;;;;;4.65;86.55;101406.28;5020200;28;20025;-79
2022/01/18 05:46:42;;;;;;;24.67;15.05;;;;;;;4.33;85.69;101371.91;5034767;28;20040;-79
2022/01/18 05:49:08;;;;;;;25.67;13.75;;;;;;;4.60;85.96;101428.38;5034876;28;20034;-79
2022/01/18 05:51:36;;;;;;;19.50;14.65;;;;;;;4.54;85.16;101416.59;5016409;28;20041;-79
2022/01/18 05:54:02;;;;;;;21.13;13.98;;;;;;;4.34;84.50;101397.50;5034495;28;20144;-79
2022/01/18 05:56:28;;;;;;;20.52;13.02;;;;;;;4.22;84.82;101386.91;5017076;28;20115;-79
2022/01/18 05:58:56;;;;;;;24.35;14.77;;;;;;;4.38;84.95;101412.34;5016351;28;20034;-79
2022/01/18 06:01:27;;;;;;;25.58;16.38;;;;;;;4.47;84.32;101414.19;5017206;28;20033;-79
2022/01/18 06:09:09;;;;;;;28.13;17.30;;;;;;;4.44;83.25;101444.25;5055929;28;20056;-79
2022/01/18 06:11:38;;;;;;;26.55;17.58;;;;;;;4.44;82.62;101444.25;5054726;28;20033;-79
2022/01/18 06:14:03;;;;;;;25.73;16.88;;;;;;;4.47;82.26;101446.41;5055615;28;20036;-79
2022/01/18 06:16:29;;;;;;;25.65;16.15;;;;;;;4.43;82.23;101440.69;5036768;28;20025;-79
2022/01/18 06:18:58;;;;;;;21.58;13.43;;;;;;;4.35;81.53;101424.75;5036320;28;20087;-79
2022/01/18 06:21:25;;;;;;;23.60;14.20;;;;;;;4.45;81.12;101434.88;5054575;28;20025;-79
2022/01/18 06:23:50;;;;;;;28.02;16.60;;;;;;;4.36;80.48;101426.41;5036558;28;20346;-79
2022/01/18 06:26:16;;;;;;;20.90;14.00;;;;;;;4.61;80.25;101461.16;5036215;28;20040;-78
2022/01/18 06:28:45;;;;;;;26.23;15.95;;;;;;;4.58;80.18;101460.91;5036405;28;20060;-78
2022/01/18 06:31:12;;;;;;;20.17;14.95;;;;;;;4.66;80.29;101474.91;5058025;28;20029;-78
2022/01/18 06:33:38;;;;;;;23.60;14.27;;;;;;;4.75;80.23;101461.31;5040010;28;20118;-78
2022/01/18 06:36:04;;;;;;;24.02;15.32;;;;;;;5.38;78.37;101474.03;5040524;28;20059;-78
2022/01/18 06:38:32;;;;;;;30.60;18.17;;;;;;;5.87;75.54;101459.00;5057907;28;20082;-78
2022/01/18 06:40:58;;;;;;;23.73;16.42;;;;;;;6.47;73.95;101472.94;5040494;28;20033;-78
2022/01/18 06:43:23;;;;;;;30.23;18.83;;;;;;;6.95;72.28;101478.13;5041085;28;20111;-78
2022/01/18 06:45:49;;;;;;;31.20;19.00;;;;;;;7.35;70.26;101463.44;5041949;28;20118;-78
2022/01/18 06:48:15;;;;;;;28.92;18.95;;;;;;;7.98;67.77;101483.88;5041329;28;20034;-78
2022/01/18 06:50:40;;;;;;;29.42;19.58;;;;;;;8.35;66.24;101457.72;5041689;28;20029;-78
2022/01/18 06:53:06;;;;;;;30.75;18.27;;;;;;;9.03;64.41;101477.03;5041173;28;20086;-78
2022/01/18 06:55:32;;;;;;;27.85;17.70;;;;;;;9.42;62.29;101476.97;5041207;28;20475;-77
2022/01/18 06:57:57;;;;;;;33.28;19.00;;;;;;;9.96;60.36;101494.22;5040046;28;20033;-78
2022/01/18 07:00:23;;;;;;;25.25;18.50;;;;;;;10.37;57.86;101481.75;5040441;28;20037;-78
2022/01/18 07:02:49;;;;;;;48.70;29.45;;;;;;;10.37;55.07;101467.84;5041601;28;20029;-78
2022/01/18 07:05:14;;;;;;;37.70;27.55;;;;;;;11.27;53.74;101495.53;5042018;28;20456;-78
2022/01/18 07:07:42;;;;;;;40.08;27.45;;;;;;;11.78;52.41;101499.16;5030265;28;20046;-79
2022/01/18 07:10:09;;;;;;;30.38;23.02;;;;;;;12.31;50.57;101494.00;5023337;28;20041;-78
2022/01/18 07:12:35;;;;;;;23.17;18.05;;;;;;;12.86;50.00;101498.34;5023111;28;20037;-78
2022/01/18 07:15:02;;;;;;;19.90;13.73;;;;;;;13.29;48.06;101495.03;5024150;28;20057;-79
2022/01/18 07:17:31;;;;;;;19.17;13.40;;;;;;;13.69;46.40;101501.84;5023659;28;20037;-79
2022/01/18 07:19:56;;;;;;;24.45;14.68;;;;;;;14.28;45.33;101490.06;5042433;28;20106;-79
2022/01/18 07:22:22;;;;;;;24.30;15.52;;;;;;;14.82;44.23;101520.38;5024278;28;20029;-78
2022/01/18 07:24:49;;;;;;;19.13;14.75;;;;;;;15.17;43.54;101512.88;5025642;28;20025;-78
2022/01/18 07:27:15;;;;;;;21.73;14.85;;;;;;;15.42;41.73;101498.69;5025562;28;20064;-78
2022/01/18 07:29:43;;;;;;;19.88;14.07;;;;;;;15.62;40.65;101468.69;5026516;28;20025;-78
2022/01/18 07:32:11;;;;;;;17.02;12.75;;;;;;;16.30;40.60;101501.03;5024625;28;20465;-78
2022/01/18 07:34:41;;;;;;;20.15;15.13;;;;;;;16.51;38.22;101501.47;5007280;28;20059;-78
2022/01/18 07:37:07;;;;;;;21.65;13.63;;;;;;;16.57;38.48;101491.56;5023185;28;20033;-78
2022/01/18 07:39:33;;;;;;;21.17;14.73;;;;;;;16.28;42.53;101523.06;5027791;28;20068;-79
2022/01/18 07:41:59;;;;;;;22.50;15.00;;;;;;;16.70;39.41;101518.31;5023918;28;20018;-78
2022/01/18 07:44:24;;;;;;;20.02;14.60;;;;;;;17.16;38.76;101532.44;5037895;28;20029;-78
2022/01/18 07:46:50;;;;;;;24.77;17.15;;;;;;;17.54;37.84;101530.66;5036309;28;20036;-78
2022/01/18 07:49:16;;;;;;;24.30;17.38;;;;;;;17.69;37.29;101535.31;5018401;28;20120;-78
2022/01/18 07:51:41;;;;;;;23.80;16.50;;;;;;;17.87;35.32;101540.41;5018091;28;20064;-78
2022/01/18 07:54:10;;;;;;;23.52;17.30;;;;;;;17.74;36.33;101543.47;5017277;28;20366;-78
2022/01/18 07:56:40;;;;;;;25.83;18.85;;;;;;;18.08;35.88;101529.44;5017543;28;20048;-78
2022/01/18 07:59:05;;;;;;;30.05;19.25;;;;;;;18.38;34.56;101548.38;5017207;28;20091;-80
2022/01/18 08:01:31;;;;;;;73.20;50.50;;;;;;;17.86;35.00;101566.94;5017563;28;20029;-79
2022/01/18 08:03:57;;;;;;;30.00;20.80;;;;;;;17.45;37.15;101561.03;5019418;28;20069;-78
2022/01/18 08:06:22;;;;;;;44.58;27.08;;;;;;;17.17;37.41;101565.00;5023164;28;20480;-78
2022/01/18 08:08:48;;;;;;;24.27;16.13;;;;;;;17.16;38.17;101569.00;5039799;28;20029;-78
2022/01/18 08:11:13;;;;;;;26.75;17.95;;;;;;;16.89;38.77;101564.47;5043405;28;20124;-78
2022/01/18 08:13:41;;;;;;;34.58;23.17;;;;;;;16.92;38.84;101556.09;5044788;28;20139;-78
2022/01/18 08:18:53;;;;;;;30.45;19.48;;;;;;;17.33;37.51;101576.13;5057388;28;20084;-78
2022/01/18 08:21:20;;;;;;;34.83;20.92;;;;;;;17.66;38.13;101575.47;5037204;28;20025;-78
2022/01/18 08:23:46;;;;;;;36.10;22.70;;;;;;;17.70;37.44;101573.50;5037186;28;20529;-78
2022/01/18 08:26:11;;;;;;;81.13;52.55;;;;;;;17.18;37.53;101555.34;5054116;28;20037;-78
2022/01/18 08:28:37;;;;;;;36.22;25.73;;;;;;;17.64;37.27;101589.09;5035883;28;20086;-79
2022/01/18 08:31:04;;;;;;;31.35;23.83;;;;;;;17.96;36.24;101583.19;5036488;28;20127;-79
2022/01/18 08:33:33;;;;;;;36.33;22.50;;;;;;;17.88;36.32;101567.38;5036251;28;20025;-79
2022/01/18 08:36:01;;;;;;;29.63;19.77;;;;;;;18.16;35.58;101590.31;5036691;28;20044;-79
2022/01/18 08:38:27;;;;;;;22.70;16.25;;;;;;;18.05;33.88;101586.53;5037374;28;20494;-79
2022/01/18 08:40:56;;;;;;;28.50;18.13;;;;;;;18.30;35.23;101584.88;5057193;28;20040;-79
2022/01/18 08:43:22;;;;;;;12.77;10.20;;;;;;;17.03;32.08;101604.09;5059762;28;20076;-78
2022/01/18 08:45:47;;;;;;;17.70;11.13;;;;;;;16.69;32.87;101603.00;5043876;28;20067;-78
2022/01/18 08:48:13;;;;;;;18.80;12.88;;;;;;;17.49;34.09;101601.31;5044267;28;20024;-78
2022/01/18 08:50:39;;;;;;;21.50;13.68;;;;;;;17.55;32.77;101608.25;5044491;28;20055;-78
2022/01/18 08:53:07;;;;;;;15.45;11.30;;;;;;;17.01;31.21;101596.03;5053896;28;20037;-78
2022/01/18 08:55:34;;;;;;;19.27;12.30;;;;;;;17.51;32.06;101605.34;5054101;28;20036;-78
2022/01/18 08:58:04;;;;;;;17.08;13.27;;;;;;;17.71;31.80;101611.72;5036038;28;20029;-78
2022/01/18 09:00:30;;;;;;;23.00;14.23;;;;;;;17.43;32.31;101612.06;5035771;28;20071;-78
2022/01/18 09:02:57;;;;;;;16.75;12.98;;;;;;;17.43;32.28;101597.19;5053763;28;20029;-78
2022/01/18 09:05:23;;;;;;;17.00;11.68;;;;;;;17.68;31.97;101612.47;5036086;28;20059;-78
2022/01/18 09:07:50;;;;;;;19.83;15.05;;;;;;;17.56;32.47;101626.75;5053654;28;20101;-78
2022/01/18 09:10:16;;;;;;;18.55;14.98;;;;;;;17.66;32.52;101631.75;5036042;28;20483;-79
2022/01/18 09:12:42;;;;;;;19.48;13.70;;;;;;;18.00;31.96;101627.13;5035994;28;20068;-78
2022/01/18 09:15:10;;;;;;;21.98;14.27;;;;;;;17.68;32.12;101629.34;5035928;28;20029;-78
2022/01/18 09:17:38;;;;;;;27.15;15.35;;;;;;;17.45;33.31;101637.00;5036070;28;20029;-78
2022/01/18 09:20:06;;;;;;;20.00;15.38;;;;;;;17.45;32.50;101642.63;5053189;28;20021;-78
2022/01/18 09:22:43;;;;;;;19.27;14.88;;;;;;;17.70;32.51;101654.34;5035333;28;20033;-78
2022/01/18 09:25:16;;;;;;;20.00;16.17;;;;;;;17.90;32.46;101649.47;5053533;28;20032;-78
2022/01/18 09:27:42;;;;;;;;;;;;;;;18.22;32.13;101664.88;5020975;28;20029;-78
2022/01/18 09:30:09;;;;;;;22.10;14.93;;;;;;;18.33;31.63;101668.66;5036006;28;20339;-78
2022/01/18 09:32:34;;;;;;;30.27;15.52;;;;;;;18.10;32.15;101656.59;5035663;28;20445;-78
2022/01/18 09:35:00;;;;;;;20.33;14.23;;;;;;;17.90;31.52;101650.28;5035642;28;20116;-78
2022/01/18 09:37:25;;;;;;;20.65;13.48;;;;;;;18.00;30.46;101668.53;5035789;28;20487;-78
2022/01/18 09:39:53;;;;;;;23.10;13.88;;;;;;;18.33;30.91;101660.19;5035180;28;20468;-78
2022/01/18 09:42:21;;;;;;;21.63;15.02;;;;;;;18.42;30.75;101667.53;5035654;28;20044;-78
2022/01/18 09:44:48;;;;;;;19.30;14.32;;;;;;;18.54;31.61;101664.53;5035580;28;20498;-78
2022/01/18 09:47:14;;;;;;;25.58;15.52;;;;;;;18.54;31.00;101670.16;5035793;28;20040;-79
2022/01/18 09:49:41;;;;;;;30.17;17.40;;;;;;;18.43;30.39;101675.66;5035414;28;20053;-78
2022/01/18 09:52:06;;;;;;;22.23;15.38;;;;;;;18.15;30.76;101647.84;5035241;28;20048;-78
2022/01/18 09:54:33;;;;;;;21.48;15.13;;;;;;;18.40;31.13;101667.94;5035833;28;20036;-77
2022/01/18 09:56:58;;;;;;;24.83;16.35;;;;;;;18.13;30.85;101667.13;5053843;28;20361;-78
2022/01/18 09:59:24;;;;;;;21.45;15.63;;;;;;;18.59;30.71;101667.81;5035183;28;20086;-78
2022/01/18 10:01:49;;;;;;;20.35;15.35;;;;;;;19.01;29.68;101665.94;5035661;28;20029;-78
2022/01/18 10:04:31;;;;;;;23.42;16.90;;;;;;;18.93;29.75;101658.59;5035863;28;20021;-79
2022/01/18 10:06:57;;;;;;;21.30;15.75;;;;;;;18.58;30.03;101663.34;5056906;28;20182;-79
2022/01/18 10:09:25;;;;;;;23.77;16.02;;;;;;;18.37;30.55;101665.06;5039093;28;20060;-78
2022/01/18 10:12:05;;;;;;;23.33;17.58;;;;;;;18.07;30.04;101654.56;5039097;28;20036;-79
2022/01/18 10:14:32;;;;;;;25.70;16.85;;;;;;;18.47;30.34;101659.56;5039334;28;20387;-79
2022/01/18 10:16:57;;;;;;;19.60;15.45;;;;;;;17.85;31.51;101661.06;5039149;28;20535;-78
2022/01/18 10:19:38;;;;;;;23.38;16.45;;;;;;;18.10;30.63;101655.81;5056902;28;20104;-79
2022/01/18 10:22:28;;;;;;;25.83;17.20;;;;;;;17.95;30.92;101649.13;5039049;28;20512;-78
2022/01/18 10:24:54;;;;;;;23.98;16.65;;;;;;;18.08;31.62;101641.28;5038720;28;20021;-79
2022/01/18 10:27:20;;;;;;;23.90;16.42;;;;;;;18.33;30.58;101650.94;5039229;28;20072;-79
2022/01/18 10:29:49;;;;;;;20.70;15.63;;;;;;;18.59;30.35;101642.44;5056905;28;20021;-79
2022/01/18 10:32:39;;;;;;;21.23;15.55;;;;;;;18.55;29.46;101641.59;5038540;28;20464;-78
2022/01/18 10:35:10;;;;;;;27.33;15.57;;;;;;;18.17;30.05;101637.03;5056948;28;20463;-79
2022/01/18 10:37:43;;;;;;;20.30;14.43;;;;;;;18.33;30.03;101623.56;5039212;28;20029;-79
2022/01/18 10:40:19;;;;;;;22.23;15.82;;;;;;;17.72;30.61;101619.00;5038497;28;20029;-79
2022/01/18 10:42:49;;;;;;;20.65;14.38;;;;;;;17.75;29.80;101640.78;5056561;28;20036;-78
2022/01/18 10:45:32;;;;;;;25.08;14.65;;;;;;;17.91;30.41;101643.47;5038592;28;20032;-79
2022/01/18 10:48:04;;;;;;;;;;;;;;;18.13;29.59;101643.78;5039303;28;20413;-79
2022/01/18 10:50:36;;;;;;;21.52;15.73;;;;;;;17.98;30.60;101642.75;5038543;28;19912;-79
2022/01/18 10:53:11;;;;;;;18.52;14.18;;;;;;;18.22;29.95;101641.53;5056674;28;20086;-80
2022/01/18 10:55:37;;;;;;;25.02;14.55;;;;;;;18.61;29.59;101639.25;5055889;28;20380;-80
2022/01/18 10:58:13;;;;;;;21.05;14.10;;;;;;;19.21;28.50;101644.81;5038135;28;20033;-79
2022/01/18 11:00:42;;;;;;;21.38;16.10;;;;;;;18.89;28.67;101638.00;5038028;28;20033;-79
2022/01/18 11:03:09;;;;;;;21.80;15.23;;;;;;;19.05;27.75;101645.03;5038271;28;20029;-78
2022/01/18 11:05:38;;;;;;;19.25;13.93;;;;;;;18.69;27.75;101643.78;5038025;28;20025;-79
2022/01/18 11:08:09;;;;;;;18.48;12.93;;;;;;;18.56;28.27;101640.38;5038499;28;20049;-79
2022/01/18 11:10:38;;;;;;;19.45;13.18;;;;;;;17.85;28.98;101644.16;5055899;28;20029;-79
2022/01/18 11:13:18;;;;;;;16.33;11.85;;;;;;;18.30;28.49;101649.69;5038384;28;20540;-79
2022/01/18 11:15:50;;;;;;;21.10;14.35;;;;;;;18.33;29.46;101634.03;5054730;28;20021;-79
2022/01/18 11:18:25;;;;;;;22.70;14.45;;;;;;;18.08;28.98;101641.28;5037724;28;20524;-79
2022/01/18 11:20:53;;;;;;;24.90;14.50;;;;;;;18.38;28.74;101627.25;5038023;28;20067;-79
2022/01/18 11:23:21;;;;;;;23.10;13.95;;;;;;;17.95;29.30;101632.22;5038139;28;20087;-79
2022/01/18 11:25:49;;;;;;;20.63;13.57;;;;;;;18.53;28.82;101629.03;5037805;28;20057;-79
2022/01/18 11:28:15;;;;;;;21.15;12.95;;;;;;;18.31;28.87;101623.13;5037664;28;20036;-79
2022/01/18 11:30:42;;;;;;;18.83;13.48;;;;;;;18.49;28.37;101628.22;5037271;28;20033;-79
2022/01/18 11:33:15;;;;;;;19.70;12.23;;;;;;;18.31;28.63;101623.13;5038005;28;20136;-79
2022/01/18 11:35:49;;;;;;;19.63;12.55;;;;;;;18.71;28.69;101630.13;5055618;28;20107;-78
2022/01/18 11:38:27;;;;;;;20.92;13.73;;;;;;;18.65;29.17;101628.81;5037646;28;20040;-79
2022/01/18 11:40:54;;;;;;;20.17;12.80;;;;;;;18.48;28.52;101616.13;5037822;28;20385;-79
2022/01/18 11:43:44;;;;;;;20.08;13.38;;;;;;;17.90;29.18;101630.56;5037535;28;20092;-81
2022/01/18 11:46:21;;;;;;;20.30;14.20;;;;;;;18.47;28.79;101624.94;5037310;28;20067;-79
2022/01/18 11:49:10;;;;;;;20.17;13.65;;;;;;;18.61;28.84;101613.88;5055400;28;20090;-80
2022/01/18 11:51:36;;;;;;;19.98;13.13;;;;;;;17.89;29.15;101602.78;5055509;28;20025;-79
2022/01/18 11:54:21;;;;;;;19.33;13.60;;;;;;;17.74;29.77;101608.19;5037324;28;20115;-79
2022/01/18 11:56:46;;;;;;;23.75;17.35;;;;;;;17.45;29.96;101617.31;5055391;28;20021;-80
2022/01/18 11:59:27;;;;;;;27.73;14.70;;;;;;;17.56;29.56;101590.16;5037786;28;20039;-79
2022/01/18 12:01:58;;;;;;;21.08;15.07;;;;;;;17.12;30.72;101612.28;5037336;28;20095;-78
2022/01/18 12:04:59;;;;;;;24.08;15.18;;;;;;;17.00;30.91;101621.72;5038375;28;20368;-79
2022/01/18 12:07:34;;;;;;;23.38;15.93;;;;;;;16.61;31.36;101632.13;5038518;28;20148;-79
2022/01/18 12:10:06;;;;;;;26.65;16.65;;;;;;;16.42;31.63;101630.13;5056084;28;20040;-78
2022/01/18 12:12:41;;;;;;;18.55;13.65;;;;;;;16.18;32.20;101625.56;5055943;28;20028;-78
2022/01/18 12:15:15;;;;;;;23.13;14.65;;;;;;;16.65;31.84;101616.16;5036788;28;20459;-79
2022/01/18 12:17:52;;;;;;;21.52;15.30;;;;;;;17.00;31.17;101616.91;5037676;28;20083;-79
2022/01/18 12:20:37;;;;;;;21.05;13.85;;;;;;;17.11;30.22;101605.06;5037483;28;20439;-79
2022/01/18 12:23:30;;;;;;;24.13;14.50;;;;;;;17.19;30.81;101589.91;5036875;28;20025;-79
2022/01/18 12:26:00;;;;;;;24.73;15.70;;;;;;;17.22;29.98;101606.06;5036863;28;20024;-78
2022/01/18 12:37:16;;;;;;;29.08;17.33;;;;;;;17.07;30.07;101599.34;5053486;28;20138;-79
2022/01/18 12:39:52;;;;;;;23.27;14.70;;;;;;;16.15;30.92;101579.38;5036837;28;20128;-79
2022/01/18 12:44:59;;;;;;;22.23;15.85;;;;;;;16.64;30.71;101592.06;5054225;28;20037;-79
2022/01/18 12:47:25;;;;;;;26.15;17.13;;;;;;;16.72;30.33;101589.06;5039755;28;20025;-79
2022/01/18 12:49:54;;;;;;;19.63;14.68;;;;;;;16.37;30.46;101589.09;5057674;28;20047;-78
2022/01/18 12:52:20;;;;;;;21.50;15.10;;;;;;;16.58;31.05;101577.47;5036598;28;20120;-79